sensor_id;sensor_type;location;lat;lon;timestamp;temperature;humidity
70550;DHT22;58101;48.658;2.328;2022-12-07T00:01:09;1.50;99.90
70550;DHT22;58101;48.658;2.328;2022-12-07T00:03:36;1.50;99.90
70550;DHT22;58101;48.658;2.328;2022-12-07T00:06:03;1.70;99.90
70550;DHT22;58101;48.658;2.328;2022-12-07T00:08:30;1.50;99.90
70550;DHT22;58101;48.658;2.328;2022-12-07T00:11:01;1.60;99.90
70550;DHT22;58101;48.658;2.328;2022-12-07T00:13:27;1.50;99.90
70550;DHT22;58101;48.658;2.328;2022-12-07T00:15:53;1.50;99.90
70550;DHT22;58101;48.658;2.328;2022-12-07T00:18:18;1.40;99.90
70550;DHT22;58101;48.658;2.328;2022-12-07T00:20:44;1.40;99.90
70550;DHT22;58101;48.658;2.328;2022-12-07T00:23:09;1.40;99.90
70550;DHT22;58101;48.658;2.328;2022-12-07T00:25:35;1.40;99.90
70550;DHT22;58101;48.658;2.328;2022-12-07T00:28:01;1.30;99.90
70550;DHT22;58101;48.658;2.328;2022-12-07T00:30:26;1.30;99.90
70550;DHT22;58101;48.658;2.328;2022-12-07T00:32:52;1.30;99.90
70550;DHT22;58101;48.658;2.328;2022-12-07T00:35:17;1.30;99.90
70550;DHT22;58101;48.658;2.328;2022-12-07T00:37:43;1.30;99.90
70550;DHT22;58101;48.658;2.328;2022-12-07T00:40:09;1.30;99.90
70550;DHT22;58101;48.658;2.328;2022-12-07T00:42:35;1.20;99.90
70550;DHT22;58101;48.658;2.328;2022-12-07T00:45:00;1.30;99.90
70550;DHT22;58101;48.658;2.328;2022-12-07T00:47:26;1.30;99.90
70550;DHT22;58101;48.658;2.328;2022-12-07T00:49:51;1.40;99.90
70550;DHT22;58101;48.658;2.328;2022-12-07T00:52:17;1.40;99.90
70550;DHT22;58101;48.658;2.328;2022-12-07T00:54:43;1.30;99.90
70550;DHT22;58101;48.658;2.328;2022-12-07T00:57:08;1.40;99.90
70550;DHT22;58101;48.658;2.328;2022-12-07T00:59:34;1.40;99.90
70550;DHT22;58101;48.658;2.328;2022-12-07T01:02:00;1.40;99.90
70550;DHT22;58101;48.658;2.328;2022-12-07T01:04:25;1.50;99.90
70550;DHT22;58101;48.658;2.328;2022-12-07T01:06:51;1.60;99.90
70550;DHT22;58101;48.658;2.328;2022-12-07T01:09:17;1.60;99.90
70550;DHT22;58101;48.658;2.328;2022-12-07T01:11:42;1.60;99.90
70550;DHT22;58101;48.658;2.328;2022-12-07T01:14:08;1.80;99.90
70550;DHT22;58101;48.658;2.328;2022-12-07T01:16:34;1.60;99.90
70550;DHT22;58101;48.658;2.328;2022-12-07T01:19:00;1.60;99.90
70550;DHT22;58101;48.658;2.328;2022-12-07T01:21:29;1.70;99.90
70550;DHT22;58101;48.658;2.328;2022-12-07T01:23:57;1.60;99.90
70550;DHT22;58101;48.658;2.328;2022-12-07T01:26:24;1.60;99.90
70550;DHT22;58101;48.658;2.328;2022-12-07T01:28:50;1.80;99.90
70550;DHT22;58101;48.658;2.328;2022-12-07T01:31:18;1.60;99.90
70550;DHT22;58101;48.658;2.328;2022-12-07T01:33:50;1.70;99.90
70550;DHT22;58101;48.658;2.328;2022-12-07T01:36:25;1.70;99.90
70550;DHT22;58101;48.658;2.328;2022-12-07T01:38:54;1.80;99.90
70550;DHT22;58101;48.658;2.328;2022-12-07T01:41:22;1.80;99.90
70550;DHT22;58101;48.658;2.328;2022-12-07T01:46:32;1.90;99.90
70550;DHT22;58101;48.658;2.328;2022-12-07T01:48:58;1.90;99.90
70550;DHT22;58101;48.658;2.328;2022-12-07T01:51:25;1.90;99.90
70550;DHT22;58101;48.658;2.328;2022-12-07T01:53:51;2.10;99.90
70550;DHT22;58101;48.658;2.328;2022-12-07T01:56:22;2.00;99.90
70550;DHT22;58101;48.658;2.328;2022-12-07T01:58:49;2.00;99.90
70550;DHT22;58101;48.658;2.328;2022-12-07T02:01:14;2.00;99.90
70550;DHT22;58101;48.658;2.328;2022-12-07T02:03:45;2.10;99.90
70550;DHT22;58101;48.658;2.328;2022-12-07T02:06:17;2.10;99.90
70550;DHT22;58101;48.658;2.328;2022-12-07T02:08:44;2.10;99.90
70550;DHT22;58101;48.658;2.328;2022-12-07T02:11:10;2.10;99.90
70550;DHT22;58101;48.658;2.328;2022-12-07T02:13:38;2.10;99.90
70550;DHT22;58101;48.658;2.328;2022-12-07T02:16:15;2.10;99.90
70550;DHT22;58101;48.658;2.328;2022-12-07T02:22:18;2.20;99.90
70550;DHT22;58101;48.658;2.328;2022-12-07T02:27:46;2.00;99.90
70550;DHT22;58101;48.658;2.328;2022-12-07T02:30:20;2.20;99.90
70550;DHT22;58101;48.658;2.328;2022-12-07T02:32:57;2.10;99.90
70550;DHT22;58101;48.658;2.328;2022-12-07T02:35:30;2.10;99.90
70550;DHT22;58101;48.658;2.328;2022-12-07T02:40:51;2.20;99.90
70550;DHT22;58101;48.658;2.328;2022-12-07T02:43:24;2.20;99.90
70550;DHT22;58101;48.658;2.328;2022-12-07T02:45:54;2.20;99.90
70550;DHT22;58101;48.658;2.328;2022-12-07T02:48:23;2.20;99.90
70550;DHT22;58101;48.658;2.328;2022-12-07T02:50:51;2.20;99.90
70550;DHT22;58101;48.658;2.328;2022-12-07T02:56:46;2.20;99.90
70550;DHT22;58101;48.658;2.328;2022-12-07T02:59:10;2.20;99.90
70550;DHT22;58101;48.658;2.328;2022-12-07T03:06:45;2.20;99.90
70550;DHT22;58101;48.658;2.328;2022-12-07T03:09:24;2.20;99.90
70550;DHT22;58101;48.658;2.328;2022-12-07T03:12:01;2.10;99.90
70550;DHT22;58101;48.658;2.328;2022-12-07T03:14:33;2.20;99.90
70550;DHT22;58101;48.658;2.328;2022-12-07T03:17:10;2.10;99.90
70550;DHT22;58101;48.658;2.328;2022-12-07T03:19:40;2.10;99.90
70550;DHT22;58101;48.658;2.328;2022-12-07T03:22:09;2.00;99.90
70550;DHT22;58101;48.658;2.328;2022-12-07T03:27:49;2.00;99.90
70550;DHT22;58101;48.658;2.328;2022-12-07T03:30:20;2.00;99.90
70550;DHT22;58101;48.658;2.328;2022-12-07T03:37:56;2.00;99.90
70550;DHT22;58101;48.658;2.328;2022-12-07T03:43:10;1.90;99.90
70550;DHT22;58101;48.658;2.328;2022-12-07T03:45:40;1.90;99.90
70550;DHT22;58101;48.658;2.328;2022-12-07T03:48:28;1.90;99.90
70550;DHT22;58101;48.658;2.328;2022-12-07T03:53:52;1.80;99.90
70550;DHT22;58101;48.658;2.328;2022-12-07T03:56:20;1.70;99.90
70550;DHT22;58101;48.658;2.328;2022-12-07T03:58:47;1.70;99.90
70550;DHT22;58101;48.658;2.328;2022-12-07T04:01:12;1.80;99.90
70550;DHT22;58101;48.658;2.328;2022-12-07T04:03:38;1.60;99.90
70550;DHT22;58101;48.658;2.328;2022-12-07T04:06:04;1.60;99.90
70550;DHT22;58101;48.658;2.328;2022-12-07T04:08:30;1.50;99.90
70550;DHT22;58101;48.658;2.328;2022-12-07T04:10:56;1.50;99.90
70550;DHT22;58101;48.658;2.328;2022-12-07T04:13:21;1.50;99.90
70550;DHT22;58101;48.658;2.328;2022-12-07T04:15:47;1.40;99.90
70550;DHT22;58101;48.658;2.328;2022-12-07T04:18:13;1.40;99.90
70550;DHT22;58101;48.658;2.328;2022-12-07T04:20:38;1.40;99.90
70550;DHT22;58101;48.658;2.328;2022-12-07T04:23:04;1.40;99.90
70550;DHT22;58101;48.658;2.328;2022-12-07T04:25:30;1.30;99.90
70550;DHT22;58101;48.658;2.328;2022-12-07T04:27:55;1.30;99.90
70550;DHT22;58101;48.658;2.328;2022-12-07T04:30:22;1.30;99.90
70550;DHT22;58101;48.658;2.328;2022-12-07T04:32:47;1.20;99.90
70550;DHT22;58101;48.658;2.328;2022-12-07T04:35:13;1.20;99.90
70550;DHT22;58101;48.658;2.328;2022-12-07T04:37:45;1.20;99.90
70550;DHT22;58101;48.658;2.328;2022-12-07T04:40:11;1.20;99.90
70550;DHT22;58101;48.658;2.328;2022-12-07T04:42:41;1.20;99.90
70550;DHT22;58101;48.658;2.328;2022-12-07T04:45:07;1.30;99.90
70550;DHT22;58101;48.658;2.328;2022-12-07T04:47:33;1.20;99.90
70550;DHT22;58101;48.658;2.328;2022-12-07T04:49:58;1.20;99.90
70550;DHT22;58101;48.658;2.328;2022-12-07T04:52:24;1.30;99.90
70550;DHT22;58101;48.658;2.328;2022-12-07T04:54:50;1.30;99.90
70550;DHT22;58101;48.658;2.328;2022-12-07T04:57:16;1.30;99.90
70550;DHT22;58101;48.658;2.328;2022-12-07T04:59:41;1.30;99.90
70550;DHT22;58101;48.658;2.328;2022-12-07T05:02:07;1.30;99.90
70550;DHT22;58101;48.658;2.328;2022-12-07T05:04:35;1.30;99.90
70550;DHT22;58101;48.658;2.328;2022-12-07T05:07:01;1.30;99.90
70550;DHT22;58101;48.658;2.328;2022-12-07T05:09:27;1.30;99.90
70550;DHT22;58101;48.658;2.328;2022-12-07T05:11:52;1.40;99.90
70550;DHT22;58101;48.658;2.328;2022-12-07T05:14:20;1.40;99.90
70550;DHT22;58101;48.658;2.328;2022-12-07T05:16:48;1.40;99.90
70550;DHT22;58101;48.658;2.328;2022-12-07T05:19:15;1.40;99.90
70550;DHT22;58101;48.658;2.328;2022-12-07T05:21:41;1.40;99.90
70550;DHT22;58101;48.658;2.328;2022-12-07T05:24:09;1.30;99.90
70550;DHT22;58101;48.658;2.328;2022-12-07T05:26:35;1.30;99.90
70550;DHT22;58101;48.658;2.328;2022-12-07T05:29:00;1.30;99.90
70550;DHT22;58101;48.658;2.328;2022-12-07T05:31:27;1.30;99.90
70550;DHT22;58101;48.658;2.328;2022-12-07T05:33:53;1.30;99.90
70550;DHT22;58101;48.658;2.328;2022-12-07T05:36:19;1.30;99.90
70550;DHT22;58101;48.658;2.328;2022-12-07T05:38:45;1.30;99.90
70550;DHT22;58101;48.658;2.328;2022-12-07T05:41:14;1.30;99.90
70550;DHT22;58101;48.658;2.328;2022-12-07T05:43:58;1.20;99.90
70550;DHT22;58101;48.658;2.328;2022-12-07T05:46:24;1.30;99.90
70550;DHT22;58101;48.658;2.328;2022-12-07T05:48:49;1.10;99.90
70550;DHT22;58101;48.658;2.328;2022-12-07T05:51:15;1.00;99.90
70550;DHT22;58101;48.658;2.328;2022-12-07T05:53:41;1.00;99.90
70550;DHT22;58101;48.658;2.328;2022-12-07T05:56:07;1.10;99.90
70550;DHT22;58101;48.658;2.328;2022-12-07T05:58:32;1.00;99.90
70550;DHT22;58101;48.658;2.328;2022-12-07T06:01:16;1.00;99.90
70550;DHT22;58101;48.658;2.328;2022-12-07T06:03:42;1.20;99.90
70550;DHT22;58101;48.658;2.328;2022-12-07T06:06:08;1.10;99.90
70550;DHT22;58101;48.658;2.328;2022-12-07T06:08:33;1.10;99.90
70550;DHT22;58101;48.658;2.328;2022-12-07T06:10:59;1.20;99.90
70550;DHT22;58101;48.658;2.328;2022-12-07T06:13:43;1.20;99.90
70550;DHT22;58101;48.658;2.328;2022-12-07T06:16:09;1.20;99.90
70550;DHT22;58101;48.658;2.328;2022-12-07T06:18:34;1.30;99.90
70550;DHT22;58101;48.658;2.328;2022-12-07T06:21:00;1.50;99.90
70550;DHT22;58101;48.658;2.328;2022-12-07T06:23:26;1.30;99.90
70550;DHT22;58101;48.658;2.328;2022-12-07T06:25:51;1.40;99.90
70550;DHT22;58101;48.658;2.328;2022-12-07T06:28:38;1.40;99.90
70550;DHT22;58101;48.658;2.328;2022-12-07T06:31:03;1.40;99.90
70550;DHT22;58101;48.658;2.328;2022-12-07T06:33:29;1.40;99.90
70550;DHT22;58101;48.658;2.328;2022-12-07T06:35:54;1.40;99.90
70550;DHT22;58101;48.658;2.328;2022-12-07T06:38:20;1.40;99.90
70550;DHT22;58101;48.658;2.328;2022-12-07T06:40:46;1.50;99.90
70550;DHT22;58101;48.658;2.328;2022-12-07T06:43:12;1.40;99.90
70550;DHT22;58101;48.658;2.328;2022-12-07T06:45:38;1.40;99.90
70550;DHT22;58101;48.658;2.328;2022-12-07T06:48:04;1.30;99.90
70550;DHT22;58101;48.658;2.328;2022-12-07T06:50:29;1.30;99.90
70550;DHT22;58101;48.658;2.328;2022-12-07T06:52:55;1.20;99.90
70550;DHT22;58101;48.658;2.328;2022-12-07T06:55:21;1.20;99.90
70550;DHT22;58101;48.658;2.328;2022-12-07T06:57:46;1.20;99.90
70550;DHT22;58101;48.658;2.328;2022-12-07T07:00:13;1.10;99.90
70550;DHT22;58101;48.658;2.328;2022-12-07T07:02:39;1.20;99.90
70550;DHT22;58101;48.658;2.328;2022-12-07T07:05:05;1.20;99.90
70550;DHT22;58101;48.658;2.328;2022-12-07T07:07:30;1.20;99.90
70550;DHT22;58101;48.658;2.328;2022-12-07T07:09:56;1.40;99.90
70550;DHT22;58101;48.658;2.328;2022-12-07T07:12:21;1.30;99.90
70550;DHT22;58101;48.658;2.328;2022-12-07T07:15:27;1.40;99.90
70550;DHT22;58101;48.658;2.328;2022-12-07T07:17:55;1.40;99.90
70550;DHT22;58101;48.658;2.328;2022-12-07T07:20:21;1.50;99.90
70550;DHT22;58101;48.658;2.328;2022-12-07T07:22:50;1.50;99.90
70550;DHT22;58101;48.658;2.328;2022-12-07T07:25:19;1.50;99.90
70550;DHT22;58101;48.658;2.328;2022-12-07T07:27:44;1.60;99.90
70550;DHT22;58101;48.658;2.328;2022-12-07T07:30:10;1.60;99.90
70550;DHT22;58101;48.658;2.328;2022-12-07T07:32:36;1.60;99.90
70550;DHT22;58101;48.658;2.328;2022-12-07T07:35:02;1.60;99.90
70550;DHT22;58101;48.658;2.328;2022-12-07T07:37:28;1.50;99.90
70550;DHT22;58101;48.658;2.328;2022-12-07T07:39:54;1.70;99.90
70550;DHT22;58101;48.658;2.328;2022-12-07T07:42:19;1.60;99.90
70550;DHT22;58101;48.658;2.328;2022-12-07T07:44:45;1.60;99.90
70550;DHT22;58101;48.658;2.328;2022-12-07T07:47:11;1.70;99.90
70550;DHT22;58101;48.658;2.328;2022-12-07T07:49:40;1.70;99.90
70550;DHT22;58101;48.658;2.328;2022-12-07T07:52:06;1.70;99.90
70550;DHT22;58101;48.658;2.328;2022-12-07T07:54:49;1.70;99.90
70550;DHT22;58101;48.658;2.328;2022-12-07T07:57:16;1.80;99.90
70550;DHT22;58101;48.658;2.328;2022-12-07T07:59:42;1.90;99.90
70550;DHT22;58101;48.658;2.328;2022-12-07T08:02:19;1.90;99.90
70550;DHT22;58101;48.658;2.328;2022-12-07T08:04:46;1.90;99.90
70550;DHT22;58101;48.658;2.328;2022-12-07T08:07:14;2.00;99.90
70550;DHT22;58101;48.658;2.328;2022-12-07T08:13:05;2.00;99.90
70550;DHT22;58101;48.658;2.328;2022-12-07T08:15:38;2.10;99.90
70550;DHT22;58101;48.658;2.328;2022-12-07T08:18:04;2.10;99.90
70550;DHT22;58101;48.658;2.328;2022-12-07T08:23:33;2.20;99.90
70550;DHT22;58101;48.658;2.328;2022-12-07T08:26:17;2.30;99.90
70550;DHT22;58101;48.658;2.328;2022-12-07T08:28:43;2.30;99.90
70550;DHT22;58101;48.658;2.328;2022-12-07T08:31:13;2.40;99.90
70550;DHT22;58101;48.658;2.328;2022-12-07T08:33:39;2.50;99.90
70550;DHT22;58101;48.658;2.328;2022-12-07T08:36:08;2.50;99.90
70550;DHT22;58101;48.658;2.328;2022-12-07T08:38:35;2.60;99.90
70550;DHT22;58101;48.658;2.328;2022-12-07T08:41:00;2.70;99.90
70550;DHT22;58101;48.658;2.328;2022-12-07T08:43:26;2.70;99.90
70550;DHT22;58101;48.658;2.328;2022-12-07T08:46:19;2.80;99.90
70550;DHT22;58101;48.658;2.328;2022-12-07T08:48:54;2.90;99.90
70550;DHT22;58101;48.658;2.328;2022-12-07T08:51:21;3.10;99.90
70550;DHT22;58101;48.658;2.328;2022-12-07T08:53:54;3.20;99.90
70550;DHT22;58101;48.658;2.328;2022-12-07T08:56:20;3.30;99.90
70550;DHT22;58101;48.658;2.328;2022-12-07T08:58:47;3.40;99.90
70550;DHT22;58101;48.658;2.328;2022-12-07T09:01:13;3.50;99.90
70550;DHT22;58101;48.658;2.328;2022-12-07T09:03:39;3.60;99.90
70550;DHT22;58101;48.658;2.328;2022-12-07T09:08:42;3.90;99.90
70550;DHT22;58101;48.658;2.328;2022-12-07T09:11:09;4.10;99.90
70550;DHT22;58101;48.658;2.328;2022-12-07T09:13:35;4.40;99.90
70550;DHT22;58101;48.658;2.328;2022-12-07T09:16:00;5.00;99.90
70550;DHT22;58101;48.658;2.328;2022-12-07T09:18:26;5.40;99.90
70550;DHT22;58101;48.658;2.328;2022-12-07T09:20:52;6.00;99.90
70550;DHT22;58101;48.658;2.328;2022-12-07T09:23:17;6.40;99.90
70550;DHT22;58101;48.658;2.328;2022-12-07T09:25:43;6.60;99.90
70550;DHT22;58101;48.658;2.328;2022-12-07T09:28:09;6.70;99.90
70550;DHT22;58101;48.658;2.328;2022-12-07T09:30:34;6.50;99.90
70550;DHT22;58101;48.658;2.328;2022-12-07T09:33:00;6.40;99.90
70550;DHT22;58101;48.658;2.328;2022-12-07T09:35:26;6.50;99.90
70550;DHT22;58101;48.658;2.328;2022-12-07T09:37:51;6.40;99.90
70550;DHT22;58101;48.658;2.328;2022-12-07T09:40:20;6.60;99.90
70550;DHT22;58101;48.658;2.328;2022-12-07T09:42:54;7.20;99.90
70550;DHT22;58101;48.658;2.328;2022-12-07T09:45:39;8.50;99.90
70550;DHT22;58101;48.658;2.328;2022-12-07T09:48:05;10.50;99.40
70550;DHT22;58101;48.658;2.328;2022-12-07T09:50:31;12.30;91.50
70550;DHT22;58101;48.658;2.328;2022-12-07T09:53:27;14.00;82.00
70550;DHT22;58101;48.658;2.328;2022-12-07T09:55:54;15.60;71.10
70550;DHT22;58101;48.658;2.328;2022-12-07T09:58:25;16.50;63.20
70550;DHT22;58101;48.658;2.328;2022-12-07T10:00:58;17.30;61.60
70550;DHT22;58101;48.658;2.328;2022-12-07T10:03:26;17.90;59.20
70550;DHT22;58101;48.658;2.328;2022-12-07T10:05:52;18.40;57.90
70550;DHT22;58101;48.658;2.328;2022-12-07T10:08:18;18.70;55.50
70550;DHT22;58101;48.658;2.328;2022-12-07T10:10:45;19.00;53.70
70550;DHT22;58101;48.658;2.328;2022-12-07T10:13:21;19.10;52.80
70550;DHT22;58101;48.658;2.328;2022-12-07T10:15:52;19.30;52.40
70550;DHT22;58101;48.658;2.328;2022-12-07T10:21:24;18.90;51.80
70550;DHT22;58101;48.658;2.328;2022-12-07T10:24:08;19.00;51.50
70550;DHT22;58101;48.658;2.328;2022-12-07T10:29:37;18.60;52.40
70550;DHT22;58101;48.658;2.328;2022-12-07T10:34:47;19.70;50.00
70550;DHT22;58101;48.658;2.328;2022-12-07T10:39:46;20.60;47.40
70550;DHT22;58101;48.658;2.328;2022-12-07T10:42:41;21.10;46.70
70550;DHT22;58101;48.658;2.328;2022-12-07T10:45:18;21.10;45.30
70550;DHT22;58101;48.658;2.328;2022-12-07T10:53:09;17.00;51.80
70550;DHT22;58101;48.658;2.328;2022-12-07T10:58:37;17.50;53.60
70550;DHT22;58101;48.658;2.328;2022-12-07T11:01:31;18.50;51.20
70550;DHT22;58101;48.658;2.328;2022-12-07T11:06:39;20.50;47.40
70550;DHT22;58101;48.658;2.328;2022-12-07T11:09:24;21.00;45.40
70550;DHT22;58101;48.658;2.328;2022-12-07T11:12:13;21.50;44.10
70550;DHT22;58101;48.658;2.328;2022-12-07T11:26:13;22.40;42.00
70550;DHT22;58101;48.658;2.328;2022-12-07T11:31:58;22.70;40.90
70550;DHT22;58101;48.658;2.328;2022-12-07T11:36:59;22.90;40.30
70550;DHT22;58101;48.658;2.328;2022-12-07T11:39:35;22.90;41.20
70550;DHT22;58101;48.658;2.328;2022-12-07T11:42:06;23.10;39.60
70550;DHT22;58101;48.658;2.328;2022-12-07T11:58:30;23.50;38.40
70550;DHT22;58101;48.658;2.328;2022-12-07T12:04:14;22.60;38.50
70550;DHT22;58101;48.658;2.328;2022-12-07T12:06:44;21.60;39.60
70550;DHT22;58101;48.658;2.328;2022-12-07T12:09:41;20.60;42.70
70550;DHT22;58101;48.658;2.328;2022-12-07T12:12:48;20.80;43.70
70550;DHT22;58101;48.658;2.328;2022-12-07T12:18:15;22.30;39.70
70550;DHT22;58101;48.658;2.328;2022-12-07T12:20:49;21.40;40.30
70550;DHT22;58101;48.658;2.328;2022-12-07T12:23:36;20.00;42.50
70550;DHT22;58101;48.658;2.328;2022-12-07T12:26:06;18.90;45.30
70550;DHT22;58101;48.658;2.328;2022-12-07T12:31:14;16.80;48.90
70550;DHT22;58101;48.658;2.328;2022-12-07T12:33:52;15.60;51.90
70550;DHT22;58101;48.658;2.328;2022-12-07T12:36:42;15.00;54.30
70550;DHT22;58101;48.658;2.328;2022-12-07T12:39:11;15.20;54.90
70550;DHT22;58101;48.658;2.328;2022-12-07T12:46:57;16.00;51.70
70550;DHT22;58101;48.658;2.328;2022-12-07T12:54:23;15.20;53.80
70550;DHT22;58101;48.658;2.328;2022-12-07T13:02:26;14.00;56.70
70550;DHT22;58101;48.658;2.328;2022-12-07T13:05:02;13.50;58.80
70550;DHT22;58101;48.658;2.328;2022-12-07T13:12:57;11.70;64.30
70550;DHT22;58101;48.658;2.328;2022-12-07T13:18:03;11.60;65.70
70550;DHT22;58101;48.658;2.328;2022-12-07T13:20:49;11.50;65.90
70550;DHT22;58101;48.658;2.328;2022-12-07T13:23:19;11.30;66.60
70550;DHT22;58101;48.658;2.328;2022-12-07T13:26:04;11.10;67.10
70550;DHT22;58101;48.658;2.328;2022-12-07T13:28:39;10.90;68.50
70550;DHT22;58101;48.658;2.328;2022-12-07T13:31:13;10.70;69.80
70550;DHT22;58101;48.658;2.328;2022-12-07T13:33:43;10.50;70.60
70550;DHT22;58101;48.658;2.328;2022-12-07T13:36:26;10.30;71.70
70550;DHT22;58101;48.658;2.328;2022-12-07T13:38:56;10.20;72.70
70550;DHT22;58101;48.658;2.328;2022-12-07T13:41:26;10.00;73.70
70550;DHT22;58101;48.658;2.328;2022-12-07T13:46:48;9.80;77.00
70550;DHT22;58101;48.658;2.328;2022-12-07T13:51:47;9.60;78.40
70550;DHT22;58101;48.658;2.328;2022-12-07T13:54:13;9.40;79.30
70550;DHT22;58101;48.658;2.328;2022-12-07T13:56:39;9.20;80.00
70550;DHT22;58101;48.658;2.328;2022-12-07T13:59:10;9.30;81.30
70550;DHT22;58101;48.658;2.328;2022-12-07T14:01:38;9.20;82.10
70550;DHT22;58101;48.658;2.328;2022-12-07T14:04:24;9.20;83.70
70550;DHT22;58101;48.658;2.328;2022-12-07T14:06:52;9.20;83.90
70550;DHT22;58101;48.658;2.328;2022-12-07T14:09:24;9.10;84.60
70550;DHT22;58101;48.658;2.328;2022-12-07T14:11:52;9.20;85.20
70550;DHT22;58101;48.658;2.328;2022-12-07T14:14:22;9.40;85.80
70550;DHT22;58101;48.658;2.328;2022-12-07T14:17:17;9.30;85.50
70550;DHT22;58101;48.658;2.328;2022-12-07T14:19:46;9.30;85.00
70550;DHT22;58101;48.658;2.328;2022-12-07T14:22:53;9.30;84.20
70550;DHT22;58101;48.658;2.328;2022-12-07T14:25:21;9.20;84.30
70550;DHT22;58101;48.658;2.328;2022-12-07T14:27:58;9.10;84.80
70550;DHT22;58101;48.658;2.328;2022-12-07T14:30:27;9.00;84.90
70550;DHT22;58101;48.658;2.328;2022-12-07T14:32:57;8.90;86.60
70550;DHT22;58101;48.658;2.328;2022-12-07T14:35:23;8.80;86.50
70550;DHT22;58101;48.658;2.328;2022-12-07T14:37:49;8.80;88.20
70550;DHT22;58101;48.658;2.328;2022-12-07T14:40:21;8.80;89.50
70550;DHT22;58101;48.658;2.328;2022-12-07T14:42:53;8.80;90.00
70550;DHT22;58101;48.658;2.328;2022-12-07T14:45:22;8.70;90.00
70550;DHT22;58101;48.658;2.328;2022-12-07T14:47:48;8.70;90.80
70550;DHT22;58101;48.658;2.328;2022-12-07T14:50:18;8.60;90.70
70550;DHT22;58101;48.658;2.328;2022-12-07T14:53:10;8.60;90.60
70550;DHT22;58101;48.658;2.328;2022-12-07T14:55:33;8.50;90.90
70550;DHT22;58101;48.658;2.328;2022-12-07T14:57:59;8.50;90.90
70550;DHT22;58101;48.658;2.328;2022-12-07T15:00:27;8.30;91.20
70550;DHT22;58101;48.658;2.328;2022-12-07T15:02:53;8.30;91.40
70550;DHT22;58101;48.658;2.328;2022-12-07T15:05:19;8.10;92.20
70550;DHT22;58101;48.658;2.328;2022-12-07T15:07:45;8.00;92.50
70550;DHT22;58101;48.658;2.328;2022-12-07T15:10:24;7.80;93.40
70550;DHT22;58101;48.658;2.328;2022-12-07T15:12:54;7.70;94.00
70550;DHT22;58101;48.658;2.328;2022-12-07T15:15:20;7.60;94.70
70550;DHT22;58101;48.658;2.328;2022-12-07T15:17:46;7.50;94.90
70550;DHT22;58101;48.658;2.328;2022-12-07T15:20:13;7.40;95.30
70550;DHT22;58101;48.658;2.328;2022-12-07T15:22:39;7.30;96.30
70550;DHT22;58101;48.658;2.328;2022-12-07T15:25:05;7.20;97.10
70550;DHT22;58101;48.658;2.328;2022-12-07T15:27:31;7.10;97.30
70550;DHT22;58101;48.658;2.328;2022-12-07T15:29:57;7.10;97.80
70550;DHT22;58101;48.658;2.328;2022-12-07T15:32:23;7.00;98.00
70550;DHT22;58101;48.658;2.328;2022-12-07T15:34:48;6.90;98.50
70550;DHT22;58101;48.658;2.328;2022-12-07T15:37:15;6.80;99.00
70550;DHT22;58101;48.658;2.328;2022-12-07T15:39:41;6.90;99.60
70550;DHT22;58101;48.658;2.328;2022-12-07T15:42:07;6.80;99.90
70550;DHT22;58101;48.658;2.328;2022-12-07T15:44:33;6.80;99.90
70550;DHT22;58101;48.658;2.328;2022-12-07T15:47:17;6.80;99.90
70550;DHT22;58101;48.658;2.328;2022-12-07T15:49:43;6.80;99.90
70550;DHT22;58101;48.658;2.328;2022-12-07T15:52:09;6.70;99.90
70550;DHT22;58101;48.658;2.328;2022-12-07T15:54:34;6.70;99.90
70550;DHT22;58101;48.658;2.328;2022-12-07T15:57:00;6.70;99.90
70550;DHT22;58101;48.658;2.328;2022-12-07T15:59:27;6.60;99.90
70550;DHT22;58101;48.658;2.328;2022-12-07T16:01:54;6.50;99.90
70550;DHT22;58101;48.658;2.328;2022-12-07T16:04:19;6.50;99.90
70550;DHT22;58101;48.658;2.328;2022-12-07T16:06:45;6.70;99.90
70550;DHT22;58101;48.658;2.328;2022-12-07T16:09:11;6.40;99.90
70550;DHT22;58101;48.658;2.328;2022-12-07T16:11:37;6.40;99.90
70550;DHT22;58101;48.658;2.328;2022-12-07T16:14:03;6.30;99.90
70550;DHT22;58101;48.658;2.328;2022-12-07T16:16:29;6.30;99.90
70550;DHT22;58101;48.658;2.328;2022-12-07T16:18:55;6.30;99.90
70550;DHT22;58101;48.658;2.328;2022-12-07T16:21:21;6.30;99.90
70550;DHT22;58101;48.658;2.328;2022-12-07T16:23:47;6.40;99.90
70550;DHT22;58101;48.658;2.328;2022-12-07T16:26:15;6.20;99.90
70550;DHT22;58101;48.658;2.328;2022-12-07T16:28:42;6.20;99.90
70550;DHT22;58101;48.658;2.328;2022-12-07T16:31:13;6.20;99.90
70550;DHT22;58101;48.658;2.328;2022-12-07T16:33:41;6.10;99.90
70550;DHT22;58101;48.658;2.328;2022-12-07T16:36:08;6.20;99.90
70550;DHT22;58101;48.658;2.328;2022-12-07T16:38:35;6.20;99.90
70550;DHT22;58101;48.658;2.328;2022-12-07T16:41:01;6.20;99.90
70550;DHT22;58101;48.658;2.328;2022-12-07T16:43:27;6.20;99.90
70550;DHT22;58101;48.658;2.328;2022-12-07T16:45:52;6.20;99.90
70550;DHT22;58101;48.658;2.328;2022-12-07T16:48:18;6.20;99.90
70550;DHT22;58101;48.658;2.328;2022-12-07T16:50:45;6.20;99.90
70550;DHT22;58101;48.658;2.328;2022-12-07T16:53:11;6.40;99.90
70550;DHT22;58101;48.658;2.328;2022-12-07T16:55:38;6.10;99.90
70550;DHT22;58101;48.658;2.328;2022-12-07T16:58:06;6.10;99.90
70550;DHT22;58101;48.658;2.328;2022-12-07T17:00:31;6.10;99.90
70550;DHT22;58101;48.658;2.328;2022-12-07T17:02:58;6.10;99.90
70550;DHT22;58101;48.658;2.328;2022-12-07T17:05:24;6.10;99.90
70550;DHT22;58101;48.658;2.328;2022-12-07T17:07:50;6.20;99.90
70550;DHT22;58101;48.658;2.328;2022-12-07T17:10:28;6.10;99.90
70550;DHT22;58101;48.658;2.328;2022-12-07T17:12:54;6.10;99.90
70550;DHT22;58101;48.658;2.328;2022-12-07T17:15:19;6.10;99.90
70550;DHT22;58101;48.658;2.328;2022-12-07T17:17:53;6.20;99.90
70550;DHT22;58101;48.658;2.328;2022-12-07T17:20:26;6.10;99.90
70550;DHT22;58101;48.658;2.328;2022-12-07T17:22:52;6.10;99.90
70550;DHT22;58101;48.658;2.328;2022-12-07T17:25:18;6.10;99.90
70550;DHT22;58101;48.658;2.328;2022-12-07T17:27:45;6.20;99.90
70550;DHT22;58101;48.658;2.328;2022-12-07T17:30:12;6.10;99.90
70550;DHT22;58101;48.658;2.328;2022-12-07T17:32:38;6.20;99.90
70550;DHT22;58101;48.658;2.328;2022-12-07T17:35:04;6.20;99.90
70550;DHT22;58101;48.658;2.328;2022-12-07T17:37:31;6.20;99.90
70550;DHT22;58101;48.658;2.328;2022-12-07T17:39:57;6.40;99.90
70550;DHT22;58101;48.658;2.328;2022-12-07T17:42:26;6.20;99.90
70550;DHT22;58101;48.658;2.328;2022-12-07T17:45:05;6.40;99.90
70550;DHT22;58101;48.658;2.328;2022-12-07T17:47:31;6.30;99.90
70550;DHT22;58101;48.658;2.328;2022-12-07T17:49:56;6.30;99.90
70550;DHT22;58101;48.658;2.328;2022-12-07T17:52:22;6.30;99.90
70550;DHT22;58101;48.658;2.328;2022-12-07T17:55:07;6.30;99.90
70550;DHT22;58101;48.658;2.328;2022-12-07T17:57:32;6.30;99.90
70550;DHT22;58101;48.658;2.328;2022-12-07T17:59:58;6.30;99.90
70550;DHT22;58101;48.658;2.328;2022-12-07T18:02:24;6.30;99.90
70550;DHT22;58101;48.658;2.328;2022-12-07T18:04:49;6.30;99.90
70550;DHT22;58101;48.658;2.328;2022-12-07T18:07:15;6.30;99.90
70550;DHT22;58101;48.658;2.328;2022-12-07T18:09:41;6.40;99.90
70550;DHT22;58101;48.658;2.328;2022-12-07T18:12:07;6.30;99.90